createdAt,value
2023-05-23T00:00:31.467Z,92762.00
2023-05-23T00:01:32.146Z,92762.00
2023-05-23T00:02:31.464Z,92762.00
2023-05-23T00:03:31.549Z,92764.00
2023-05-23T00:04:31.558Z,92760.00
2023-05-23T00:05:31.481Z,92764.00
2023-05-23T00:06:31.487Z,92764.00
2023-05-23T00:07:31.522Z,92762.00
2023-05-23T00:08:31.536Z,92762.00
2023-05-23T00:09:31.564Z,92764.00
2023-05-23T00:10:31.597Z,92764.00
2023-05-23T00:11:31.647Z,92764.00
2023-05-23T00:12:31.681Z,92764.00
2023-05-23T00:13:31.716Z,92764.00
2023-05-23T00:14:31.742Z,92768.00
2023-05-23T00:15:31.795Z,92768.00
2023-05-23T00:16:31.891Z,92766.00
2023-05-23T00:17:31.846Z,92768.00
2023-05-23T00:18:31.851Z,92766.00
2023-05-23T00:19:31.947Z,92766.00
2023-05-23T00:20:32.234Z,92768.00
2023-05-23T00:21:31.872Z,92766.00
2023-05-23T00:22:31.849Z,92764.00
2023-05-23T00:23:31.872Z,92762.00
2023-05-23T00:24:31.907Z,92764.00
2023-05-23T00:25:31.994Z,92762.00
2023-05-23T00:26:31.977Z,92760.00
2023-05-23T00:27:32.020Z,92762.00
2023-05-23T00:28:32.038Z,92760.00
2023-05-23T00:29:32.066Z,92759.00
2023-05-23T00:30:32.096Z,92757.00
2023-05-23T00:31:32.194Z,92759.00
2023-05-23T00:32:32.152Z,92757.00
2023-05-23T00:33:32.150Z,92759.00
2023-05-23T00:34:32.188Z,92760.00
2023-05-23T00:35:32.209Z,92757.00
2023-05-23T00:36:32.295Z,92760.00
2023-05-23T00:37:32.214Z,92757.00
2023-05-23T00:38:32.217Z,92759.00
2023-05-23T00:39:32.241Z,92759.00
2023-05-23T00:40:32.246Z,92759.00
2023-05-23T00:41:32.310Z,92759.00
2023-05-23T00:42:32.273Z,92760.00
2023-05-23T00:43:32.362Z,92759.00
2023-05-23T00:44:32.276Z,92760.00
2023-05-23T00:45:32.263Z,92760.00
2023-05-23T00:46:32.262Z,92760.00
2023-05-23T00:47:32.297Z,92762.00
2023-05-23T00:48:32.213Z,92762.00
2023-05-23T00:49:32.207Z,92764.00
2023-05-23T00:50:32.186Z,92762.00
2023-05-23T00:51:32.174Z,92762.00
2023-05-23T00:52:32.267Z,92759.00
2023-05-23T00:53:32.183Z,92760.00
2023-05-23T00:54:32.194Z,92762.00
2023-05-23T00:55:32.192Z,92760.00
2023-05-23T00:56:32.200Z,92759.00
2023-05-23T00:57:32.224Z,92759.00
2023-05-23T00:58:32.324Z,92759.00
2023-05-23T00:59:32.255Z,92759.00
2023-05-23T01:00:32.238Z,92757.00
2023-05-23T01:01:32.280Z,92755.00
2023-05-23T01:02:32.311Z,92757.00
2023-05-23T01:03:32.335Z,92755.00
2023-05-23T01:04:32.228Z,92757.00
2023-05-23T01:05:32.205Z,92755.00
2023-05-23T01:06:32.209Z,92755.00
2023-05-23T01:07:32.198Z,92755.00
2023-05-23T01:08:32.261Z,92755.00
2023-05-23T01:09:32.198Z,92757.00
2023-05-23T01:10:32.187Z,92757.00
2023-05-23T01:11:32.187Z,92759.00
2023-05-23T01:12:32.244Z,92757.00
2023-05-23T01:13:32.199Z,92757.00
2023-05-23T01:14:32.172Z,92759.00
2023-05-23T01:15:32.146Z,92760.00
2023-05-23T01:16:32.194Z,92759.00
2023-05-23T01:17:32.144Z,92759.00
2023-05-23T01:18:32.119Z,92757.00
2023-05-23T01:19:32.223Z,92755.00
2023-05-23T01:20:32.134Z,92757.00
2023-05-23T01:21:32.139Z,92757.00
2023-05-23T01:22:32.154Z,92755.00
2023-05-23T01:23:32.153Z,92755.00
2023-05-23T01:24:32.250Z,92753.00
2023-05-23T01:25:32.157Z,92755.00
2023-05-23T01:26:32.178Z,92753.00
2023-05-23T01:27:32.206Z,92755.00
2023-05-23T01:28:32.299Z,92757.00
2023-05-23T01:29:32.286Z,92755.00
2023-05-23T01:30:32.312Z,92755.00
2023-05-23T01:31:32.344Z,92755.00
2023-05-23T01:32:32.375Z,92755.00
2023-05-23T01:33:32.340Z,92755.00
2023-05-23T01:34:32.339Z,92755.00
2023-05-23T01:35:32.352Z,92755.00
2023-05-23T01:36:32.365Z,92755.00
2023-05-23T01:37:32.357Z,92755.00
2023-05-23T01:38:32.354Z,92753.00
2023-05-23T01:39:32.428Z,92753.00
2023-05-23T01:40:32.470Z,92753.00
2023-05-23T01:41:32.376Z,92753.00
2023-05-23T01:42:32.359Z,92753.00
2023-05-23T01:43:32.360Z,92749.00
2023-05-23T01:44:32.347Z,92753.00
2023-05-23T01:45:32.369Z,92755.00
2023-05-23T01:46:32.364Z,92753.00
2023-05-23T01:47:32.382Z,92755.00
2023-05-23T01:48:32.395Z,92749.00
2023-05-23T01:49:32.413Z,92747.00
2023-05-23T01:50:32.442Z,92747.00
2023-05-23T01:51:32.466Z,92747.00
2023-05-23T01:52:32.493Z,92747.00
2023-05-23T01:53:32.504Z,92749.00
2023-05-23T01:54:32.596Z,92747.00
2023-05-23T01:55:32.542Z,92747.00
2023-05-23T01:56:32.672Z,92747.00
2023-05-23T01:57:32.587Z,92749.00
2023-05-23T01:58:32.594Z,92747.00
2023-05-23T01:59:32.573Z,92747.00
2023-05-23T02:00:32.631Z,92749.00
2023-05-23T02:01:32.663Z,92747.00
2023-05-23T02:02:32.720Z,92747.00
2023-05-23T02:03:32.589Z,92751.00
2023-05-23T02:04:32.531Z,92749.00
2023-05-23T02:05:32.573Z,92751.00
2023-05-23T02:06:32.582Z,92747.00
2023-05-23T02:07:32.550Z,92751.00
2023-05-23T02:08:32.554Z,92747.00
2023-05-23T02:09:32.538Z,92747.00
2023-05-23T02:10:32.538Z,92745.00
2023-05-23T02:11:32.585Z,92745.00
2023-05-23T02:12:32.647Z,92743.00
2023-05-23T02:13:32.570Z,92745.00
2023-05-23T02:14:32.612Z,92743.00
2023-05-23T02:15:32.631Z,92741.00
2023-05-23T02:16:32.657Z,92741.00
2023-05-23T02:17:32.663Z,92743.00
2023-05-23T02:18:32.653Z,92743.00
2023-05-23T02:19:32.722Z,92741.00
2023-05-23T02:20:32.725Z,92743.00
2023-05-23T02:21:35.043Z,92743.00
2023-05-23T02:22:32.708Z,92743.00
2023-05-23T02:23:32.694Z,92743.00
2023-05-23T02:24:32.711Z,92745.00
2023-05-23T02:25:32.674Z,92745.00
2023-05-23T02:26:32.645Z,92743.00
2023-05-23T02:27:32.639Z,92745.00
2023-05-23T02:28:32.702Z,92747.00
2023-05-23T02:29:32.606Z,92747.00
2023-05-23T02:30:32.588Z,92749.00
2023-05-23T02:31:32.668Z,92745.00
2023-05-23T02:32:33.204Z,92749.00
2023-05-23T02:33:32.526Z,92749.00
2023-05-23T02:34:32.528Z,92747.00
2023-05-23T02:35:32.501Z,92745.00
2023-05-23T02:36:32.486Z,92747.00
2023-05-23T02:37:32.476Z,92747.00
2023-05-23T02:38:32.438Z,92751.00
2023-05-23T02:39:32.422Z,92747.00
2023-05-23T02:40:32.406Z,92745.00
2023-05-23T02:41:32.505Z,92747.00
2023-05-23T02:42:32.370Z,92749.00
2023-05-23T02:43:32.354Z,92747.00
2023-05-23T02:44:32.418Z,92749.00
2023-05-23T02:45:32.328Z,92747.00
2023-05-23T02:46:32.363Z,92749.00
2023-05-23T02:47:32.332Z,92751.00
2023-05-23T02:48:32.284Z,92751.00
2023-05-23T02:49:32.260Z,92751.00
2023-05-23T02:50:32.236Z,92747.00
2023-05-23T02:51:32.232Z,92749.00
2023-05-23T02:52:32.198Z,92753.00
2023-05-23T02:53:32.173Z,92747.00
2023-05-23T02:54:32.169Z,92749.00
2023-05-23T02:55:32.151Z,92751.00
2023-05-23T02:56:32.124Z,92749.00
2023-05-23T02:57:32.100Z,92745.00
2023-05-23T02:58:32.083Z,92747.00
2023-05-23T02:59:32.061Z,92745.00
2023-05-23T03:00:32.133Z,92747.00
2023-05-23T03:01:32.141Z,92745.00
2023-05-23T03:02:32.138Z,92743.00
2023-05-23T03:03:32.082Z,92747.00
2023-05-23T03:04:32.684Z,92745.00
2023-05-23T03:05:31.977Z,92747.00
2023-05-23T03:06:31.948Z,92743.00
2023-05-23T03:07:31.896Z,92743.00
2023-05-23T03:08:31.870Z,92743.00
2023-05-23T03:09:31.850Z,92741.00
2023-05-23T03:10:31.830Z,92745.00
2023-05-23T03:11:31.827Z,92741.00
2023-05-23T03:12:31.802Z,92743.00
2023-05-23T03:13:32.698Z,92745.00
2023-05-23T03:14:31.772Z,92741.00
2023-05-23T03:15:31.746Z,92743.00
2023-05-23T03:16:31.897Z,92743.00
2023-05-23T03:17:31.722Z,92743.00
2023-05-23T03:18:31.692Z,92739.00
2023-05-23T03:19:33.573Z,92741.00
2023-05-23T03:20:31.644Z,92743.00
2023-05-23T03:21:31.619Z,92743.00
2023-05-23T03:22:31.600Z,92743.00
2023-05-23T03:23:31.581Z,92745.00
2023-05-23T03:24:31.563Z,92741.00
2023-05-23T03:25:31.542Z,92741.00
2023-05-23T03:26:31.710Z,92743.00
2023-05-23T03:27:31.520Z,92739.00
2023-05-23T03:28:31.489Z,92743.00
2023-05-23T03:29:31.486Z,92743.00
2023-05-23T03:30:31.459Z,92745.00
2023-05-23T03:31:31.456Z,92745.00
2023-05-23T03:32:31.570Z,92749.00
2023-05-23T03:33:31.412Z,92751.00
2023-05-23T03:34:31.455Z,92751.00
2023-05-23T03:35:31.366Z,92753.00
2023-05-23T03:36:31.353Z,92755.00
2023-05-23T03:37:31.343Z,92755.00
2023-05-23T03:38:31.386Z,92759.00
2023-05-23T03:39:31.308Z,92759.00
2023-05-23T03:40:31.331Z,92759.00
2023-05-23T03:41:31.275Z,92760.00
2023-05-23T03:42:31.308Z,92759.00
2023-05-23T03:43:31.243Z,92760.00
2023-05-23T03:44:31.227Z,92759.00
2023-05-23T03:45:31.236Z,92759.00
2023-05-23T03:46:31.303Z,92762.00
2023-05-23T03:47:31.217Z,92764.00
2023-05-23T03:48:31.311Z,92764.00
2023-05-23T03:49:31.160Z,92764.00
2023-05-23T03:50:31.154Z,92766.00
2023-05-23T03:51:31.138Z,92768.00
2023-05-23T03:52:31.122Z,92768.00
2023-05-23T03:53:31.102Z,92770.00
2023-05-23T03:54:31.086Z,92768.00
2023-05-23T03:55:31.069Z,92772.00
2023-05-23T03:56:31.060Z,92774.00
2023-05-23T03:57:31.041Z,92774.00
2023-05-23T03:58:31.043Z,92774.00
2023-05-23T03:59:31.040Z,92776.00
2023-05-23T04:00:31.014Z,92778.00
2023-05-23T04:01:30.988Z,92778.00
2023-05-23T04:02:31.033Z,92780.00
2023-05-23T04:03:31.048Z,92778.00
2023-05-23T04:04:31.126Z,92780.00
2023-05-23T04:05:30.931Z,92782.00
2023-05-23T04:06:30.941Z,92784.00
2023-05-23T04:07:30.917Z,92782.00
2023-05-23T04:08:30.907Z,92784.00
2023-05-23T04:09:30.978Z,92784.00
2023-05-23T04:10:30.946Z,92784.00
2023-05-23T04:11:30.871Z,92784.00
2023-05-23T04:12:30.859Z,92784.00
2023-05-23T04:13:30.848Z,92784.00
2023-05-23T04:14:31.217Z,92784.00
2023-05-23T04:15:30.802Z,92784.00
2023-05-23T04:16:30.854Z,92786.00
2023-05-23T04:17:30.849Z,92786.00
2023-05-23T04:18:30.770Z,92788.00
2023-05-23T04:19:30.808Z,92788.00
2023-05-23T04:20:30.825Z,92786.00
2023-05-23T04:21:30.704Z,92786.00
2023-05-23T04:22:30.685Z,92788.00
2023-05-23T04:23:30.675Z,92786.00
2023-05-23T04:24:30.684Z,92786.00
2023-05-23T04:25:30.621Z,92786.00
2023-05-23T04:26:30.619Z,92786.00
2023-05-23T04:27:30.609Z,92786.00
2023-05-23T04:28:30.591Z,92790.00
2023-05-23T04:29:30.567Z,92792.00
2023-05-23T04:30:30.636Z,92792.00
2023-05-23T04:31:30.560Z,92790.00
2023-05-23T04:32:30.545Z,92790.00
2023-05-23T04:33:30.504Z,92794.00
2023-05-23T04:34:30.465Z,92792.00
2023-05-23T04:35:30.446Z,92790.00
2023-05-23T04:36:30.823Z,92792.00
2023-05-23T04:37:30.407Z,92796.00
2023-05-23T04:38:30.384Z,92796.00
2023-05-23T04:39:30.368Z,92796.00
2023-05-23T04:40:30.342Z,92796.00
2023-05-23T04:41:30.371Z,92796.00
2023-05-23T04:42:30.307Z,92796.00
2023-05-23T04:43:30.294Z,92798.00
2023-05-23T04:44:30.312Z,92798.00
2023-05-23T04:45:30.257Z,92798.00
2023-05-23T04:46:30.284Z,92798.00
2023-05-23T04:47:30.243Z,92798.00
2023-05-23T04:48:30.216Z,92798.00
2023-05-23T04:49:30.200Z,92802.00
2023-05-23T04:50:30.175Z,92802.00
2023-05-23T04:51:30.155Z,92804.00
2023-05-23T04:52:30.229Z,92804.00
2023-05-23T04:53:30.132Z,92806.00
2023-05-23T04:54:30.121Z,92806.00
2023-05-23T04:55:30.101Z,92806.00
2023-05-23T04:56:30.081Z,92807.00
2023-05-23T04:57:30.058Z,92809.00
2023-05-23T04:58:30.043Z,92809.00
2023-05-23T04:59:30.025Z,92811.00
2023-05-23T05:00:30.007Z,92811.00
2023-05-23T05:01:30.034Z,92809.00
2023-05-23T05:02:29.967Z,92811.00
2023-05-23T05:03:29.933Z,92811.00
2023-05-23T05:04:29.980Z,92813.00
2023-05-23T05:05:29.890Z,92813.00
2023-05-23T05:06:29.878Z,92813.00
2023-05-23T05:07:29.859Z,92815.00
2023-05-23T05:08:29.933Z,92815.00
2023-05-23T05:09:29.804Z,92817.00
2023-05-23T05:10:29.863Z,92817.00
2023-05-23T05:11:29.763Z,92819.00
2023-05-23T05:12:29.737Z,92821.00
2023-05-23T05:13:29.746Z,92819.00
2023-05-23T05:14:29.780Z,92821.00
2023-05-23T05:15:29.683Z,92825.00
2023-05-23T05:16:29.704Z,92825.00
2023-05-23T05:17:29.671Z,92825.00
2023-05-23T05:18:29.626Z,92829.00
2023-05-23T05:19:29.703Z,92829.00
2023-05-23T05:20:29.585Z,92829.00
2023-05-23T05:21:29.556Z,92829.00
2023-05-23T05:22:29.551Z,92831.00
2023-05-23T05:23:29.658Z,92831.00
2023-05-23T05:24:29.591Z,92829.00
2023-05-23T05:25:29.491Z,92829.00
2023-05-23T05:26:29.461Z,92829.00
2023-05-23T05:27:29.446Z,92831.00
2023-05-23T05:28:29.436Z,92833.00
2023-05-23T05:29:29.415Z,92837.00
2023-05-23T05:30:29.396Z,92839.00
2023-05-23T05:31:29.507Z,92839.00
2023-05-23T05:32:29.422Z,92841.00
2023-05-23T05:33:30.255Z,92839.00
2023-05-23T05:34:29.399Z,92841.00
2023-05-23T05:35:29.437Z,92847.00
2023-05-23T05:36:29.526Z,92847.00
2023-05-23T05:37:29.540Z,92849.00
2023-05-23T05:38:29.583Z,92851.00
2023-05-23T05:39:29.629Z,92849.00
2023-05-23T05:40:29.679Z,92849.00
2023-05-23T05:41:29.704Z,92851.00
2023-05-23T05:42:29.745Z,92853.00
2023-05-23T05:43:29.795Z,92853.00
2023-05-23T05:44:29.822Z,92854.00
2023-05-23T05:45:29.865Z,92849.00
2023-05-23T05:46:29.929Z,92847.00
2023-05-23T05:47:29.948Z,92843.00
2023-05-23T05:48:29.969Z,92843.00
2023-05-23T05:49:30.008Z,92843.00
2023-05-23T05:50:30.041Z,92847.00
2023-05-23T05:51:30.075Z,92847.00
2023-05-23T05:52:30.120Z,92849.00
2023-05-23T05:53:30.145Z,92847.00
2023-05-23T05:54:30.192Z,92847.00
2023-05-23T05:55:30.218Z,92849.00
2023-05-23T05:56:30.350Z,92847.00
2023-05-23T05:57:30.284Z,92849.00
2023-05-23T05:58:30.328Z,92849.00
2023-05-23T05:59:32.318Z,92853.00
2023-05-23T06:00:30.449Z,92853.00
2023-05-23T06:01:30.394Z,92858.00
2023-05-23T06:02:30.487Z,92856.00
2023-05-23T06:03:30.604Z,92854.00
2023-05-23T06:04:30.514Z,92854.00
2023-05-23T06:05:30.506Z,92856.00
2023-05-23T06:06:30.555Z,92854.00
2023-05-23T06:07:30.577Z,92856.00
2023-05-23T06:08:30.673Z,92854.00
2023-05-23T06:09:30.651Z,92856.00
2023-05-23T06:10:30.695Z,92854.00
2023-05-23T06:11:30.790Z,92856.00
2023-05-23T06:12:30.830Z,92856.00
2023-05-23T06:13:30.759Z,92858.00
2023-05-23T06:14:31.283Z,92856.00
2023-05-23T06:15:30.793Z,92853.00
2023-05-23T06:16:30.812Z,92853.00
2023-05-23T06:17:30.846Z,92853.00
2023-05-23T06:18:30.795Z,92854.00
2023-05-23T06:19:30.831Z,92856.00
2023-05-23T06:20:30.793Z,92854.00
2023-05-23T06:21:30.767Z,92853.00
2023-05-23T06:22:30.762Z,92853.00
2023-05-23T06:23:30.755Z,92854.00
2023-05-23T06:24:30.750Z,92853.00
2023-05-23T06:25:30.877Z,92851.00
2023-05-23T06:26:30.756Z,92853.00
2023-05-23T06:27:30.750Z,92854.00
2023-05-23T06:28:31.696Z,92854.00
2023-05-23T06:29:30.769Z,92851.00
2023-05-23T06:30:30.765Z,92853.00
2023-05-23T06:31:30.828Z,92854.00
2023-05-23T06:32:30.809Z,92854.00
2023-05-23T06:33:31.708Z,92858.00
2023-05-23T06:34:30.829Z,92858.00
2023-05-23T06:35:30.841Z,92856.00
2023-05-23T06:36:30.854Z,92858.00
2023-05-23T06:37:30.894Z,92858.00
2023-05-23T06:38:30.894Z,92856.00
2023-05-23T06:39:30.919Z,92858.00
2023-05-23T06:40:30.939Z,92856.00
2023-05-23T06:41:30.953Z,92854.00
2023-05-23T06:42:30.968Z,92856.00
2023-05-23T06:43:30.990Z,92856.00
2023-05-23T06:44:31.106Z,92856.00
2023-05-23T06:45:31.064Z,92856.00
2023-05-23T06:46:31.136Z,92858.00
2023-05-23T06:47:31.112Z,92856.00
2023-05-23T06:48:31.122Z,92856.00
2023-05-23T06:49:31.204Z,92853.00
2023-05-23T06:50:31.166Z,92856.00
2023-05-23T06:51:31.257Z,92854.00
2023-05-23T06:52:31.224Z,92854.00
2023-05-23T06:53:31.269Z,92856.00
2023-05-23T06:54:31.280Z,92854.00
2023-05-23T06:55:31.309Z,92856.00
2023-05-23T06:56:31.354Z,92856.00
2023-05-23T06:57:32.282Z,92856.00
2023-05-23T06:58:31.402Z,92858.00
2023-05-23T06:59:31.444Z,92856.00
2023-05-23T07:00:31.606Z,92858.00
2023-05-23T07:01:31.573Z,92858.00
2023-05-23T07:02:31.557Z,92862.00
2023-05-23T07:03:31.586Z,92864.00
2023-05-23T07:04:31.610Z,92860.00
2023-05-23T07:05:31.688Z,92860.00
2023-05-23T07:06:31.729Z,92862.00
2023-05-23T07:07:31.701Z,92864.00
2023-05-23T07:08:31.738Z,92866.00
2023-05-23T07:09:31.774Z,92868.00
2023-05-23T07:10:31.792Z,92868.00
2023-05-23T07:11:31.841Z,92866.00
2023-05-23T07:12:34.651Z,92878.00
2023-05-23T07:13:31.791Z,92878.00
2023-05-23T07:14:31.776Z,92876.00
2023-05-23T07:15:31.745Z,92878.00
2023-05-23T07:16:31.874Z,92880.00
2023-05-23T07:17:31.756Z,92868.00
2023-05-23T07:18:31.688Z,92878.00
2023-05-23T07:19:31.825Z,92878.00
2023-05-23T07:20:32.298Z,92880.00
2023-05-23T07:21:31.636Z,92880.00
2023-05-23T07:22:31.627Z,92880.00
2023-05-23T07:23:31.610Z,92882.00
2023-05-23T07:24:31.585Z,92878.00
2023-05-23T07:25:31.563Z,92878.00
2023-05-23T07:26:31.595Z,92882.00
2023-05-23T07:27:31.526Z,92882.00
2023-05-23T07:28:31.514Z,92884.00
2023-05-23T07:29:31.501Z,92882.00
2023-05-23T07:30:33.368Z,92886.00
2023-05-23T07:31:31.595Z,92882.00
2023-05-23T07:32:31.599Z,92882.00
2023-05-23T07:33:31.381Z,92884.00
2023-05-23T07:34:31.359Z,92882.00
2023-05-23T07:35:31.336Z,92882.00
2023-05-23T07:36:31.308Z,92882.00
2023-05-23T07:37:31.307Z,92882.00
2023-05-23T07:38:31.229Z,92882.00
2023-05-23T07:39:31.249Z,92884.00
2023-05-23T07:40:31.169Z,92882.00
2023-05-23T07:41:31.168Z,92884.00
2023-05-23T07:42:32.176Z,92884.00
2023-05-23T07:43:31.238Z,92884.00
2023-05-23T07:44:31.078Z,92882.00
2023-05-23T07:45:31.031Z,92886.00
2023-05-23T07:46:31.103Z,92886.00
2023-05-23T07:47:30.991Z,92884.00
2023-05-23T07:48:30.936Z,92888.00
2023-05-23T07:49:31.101Z,92884.00
2023-05-23T07:50:30.862Z,92884.00
2023-05-23T07:51:30.913Z,92884.00
2023-05-23T07:52:30.916Z,92886.00
2023-05-23T07:53:30.944Z,92888.00
2023-05-23T07:54:30.984Z,92888.00
2023-05-23T07:55:31.013Z,92888.00
2023-05-23T07:56:31.061Z,92888.00
2023-05-23T07:57:31.870Z,92890.00
2023-05-23T07:58:31.112Z,92888.00
2023-05-23T07:59:31.152Z,92886.00
2023-05-23T08:00:31.171Z,92886.00
2023-05-23T08:01:31.328Z,92886.00
2023-05-23T08:02:31.399Z,92886.00
2023-05-23T08:03:31.248Z,92884.00
2023-05-23T08:04:31.346Z,92886.00
2023-05-23T08:05:31.291Z,92886.00
2023-05-23T08:06:31.325Z,92886.00
2023-05-23T08:07:31.329Z,92886.00
2023-05-23T08:08:31.357Z,92888.00
2023-05-23T08:09:31.389Z,92890.00
2023-05-23T08:10:31.408Z,92888.00
2023-05-23T08:11:31.419Z,92886.00
2023-05-23T08:12:31.456Z,92886.00
2023-05-23T08:13:33.233Z,92888.00
2023-05-23T08:14:38.700Z,92884.00
2023-05-23T08:15:32.469Z,92884.00
2023-05-23T08:16:31.505Z,92882.00
2023-05-23T08:17:32.441Z,92880.00
2023-05-23T08:18:31.402Z,92880.00
2023-05-23T08:19:31.439Z,92878.00
2023-05-23T08:20:31.354Z,92878.00
2023-05-23T08:21:31.303Z,92868.00
2023-05-23T08:22:31.286Z,92876.00
2023-05-23T08:23:31.248Z,92876.00
2023-05-23T08:24:31.217Z,92868.00
2023-05-23T08:25:31.198Z,92866.00
2023-05-23T08:26:31.168Z,92868.00
2023-05-23T08:27:31.152Z,92868.00
2023-05-23T08:28:31.201Z,92866.00
2023-05-23T08:29:31.341Z,92876.00
2023-05-23T08:30:31.312Z,92868.00
2023-05-23T08:31:31.318Z,92868.00
2023-05-23T08:32:31.398Z,92868.00
2023-05-23T08:33:31.372Z,92866.00
2023-05-23T08:34:32.321Z,92866.00
2023-05-23T08:35:31.438Z,92866.00
2023-05-23T08:36:32.324Z,92866.00
2023-05-23T08:37:31.456Z,92866.00
2023-05-23T08:38:31.502Z,92862.00
2023-05-23T08:39:31.495Z,92862.00
2023-05-23T08:40:31.509Z,92862.00
2023-05-23T08:41:31.502Z,92864.00
2023-05-23T08:42:31.548Z,92864.00
2023-05-23T08:43:31.523Z,92868.00
2023-05-23T08:44:31.533Z,92868.00
2023-05-23T08:45:31.860Z,92864.00
2023-05-23T08:46:31.645Z,92866.00
2023-05-23T08:47:31.561Z,92866.00
2023-05-23T08:48:31.540Z,92866.00
2023-05-23T08:49:31.545Z,92866.00
2023-05-23T08:50:31.835Z,92876.00
2023-05-23T08:51:31.536Z,92868.00
2023-05-23T08:52:31.529Z,92878.00
2023-05-23T08:53:31.524Z,92878.00
2023-05-23T08:54:31.520Z,92878.00
2023-05-23T08:55:31.837Z,92878.00
2023-05-23T08:56:31.473Z,92876.00
2023-05-23T08:57:31.470Z,92876.00
2023-05-23T08:58:31.447Z,92866.00
2023-05-23T08:59:31.420Z,92866.00
2023-05-23T09:00:31.411Z,92864.00
2023-05-23T09:01:31.413Z,92864.00
2023-05-23T09:02:32.447Z,92866.00
2023-05-23T09:03:31.309Z,92866.00
2023-05-23T09:04:31.288Z,92866.00
2023-05-23T09:05:31.326Z,92868.00
2023-05-23T09:06:31.210Z,92876.00
2023-05-23T09:07:31.167Z,92866.00
2023-05-23T09:08:31.132Z,92866.00
2023-05-23T09:09:31.100Z,92868.00
2023-05-23T09:10:31.061Z,92868.00
2023-05-23T09:11:31.041Z,92864.00
2023-05-23T09:12:30.996Z,92866.00
2023-05-23T09:13:30.959Z,92866.00
2023-05-23T09:14:30.935Z,92860.00
2023-05-23T09:15:30.896Z,92860.00
2023-05-23T09:16:30.875Z,92860.00
2023-05-23T09:17:30.842Z,92860.00
2023-05-23T09:18:30.783Z,92860.00
2023-05-23T09:19:30.788Z,92858.00
2023-05-23T09:20:30.841Z,92860.00
2023-05-23T09:21:30.797Z,92856.00
2023-05-23T09:22:30.676Z,92858.00
2023-05-23T09:23:30.643Z,92856.00
2023-05-23T09:24:30.609Z,92856.00
2023-05-23T09:25:30.573Z,92854.00
2023-05-23T09:26:30.544Z,92854.00
2023-05-23T09:27:30.572Z,92851.00
2023-05-23T09:28:30.530Z,92853.00
2023-05-23T09:29:30.527Z,92849.00
2023-05-23T09:30:30.603Z,92849.00
2023-05-23T09:31:30.506Z,92847.00
2023-05-23T09:32:30.460Z,92847.00
2023-05-23T09:33:30.405Z,92847.00
2023-05-23T09:34:30.364Z,92845.00
2023-05-23T09:35:30.357Z,92843.00
2023-05-23T09:36:30.310Z,92843.00
2023-05-23T09:37:30.290Z,92843.00
2023-05-23T09:38:30.293Z,92839.00
2023-05-23T09:39:30.352Z,92839.00
2023-05-23T09:40:30.292Z,92839.00
2023-05-23T09:41:30.362Z,92839.00
2023-05-23T09:42:30.270Z,92837.00
2023-05-23T09:43:30.274Z,92837.00
2023-05-23T09:44:30.282Z,92839.00
2023-05-23T09:45:30.265Z,92837.00
2023-05-23T09:46:30.389Z,92835.00
2023-05-23T09:47:30.307Z,92831.00
2023-05-23T09:48:30.273Z,92829.00
2023-05-23T09:49:30.349Z,92827.00
2023-05-23T09:50:30.360Z,92829.00
2023-05-23T09:51:30.308Z,92825.00
2023-05-23T09:52:30.314Z,92825.00
2023-05-23T09:53:30.314Z,92823.00
2023-05-23T09:54:30.319Z,92819.00
2023-05-23T09:55:30.433Z,92819.00
2023-05-23T09:56:30.421Z,92815.00
2023-05-23T09:57:30.358Z,92815.00
2023-05-23T09:58:30.414Z,92815.00
2023-05-23T09:59:30.427Z,92815.00
2023-05-23T10:00:30.457Z,92813.00
2023-05-23T10:01:30.537Z,92811.00
2023-05-23T10:02:30.507Z,92813.00
2023-05-23T10:03:31.375Z,92809.00
2023-05-23T10:04:30.540Z,92807.00
2023-05-23T10:05:30.861Z,92811.00
2023-05-23T10:06:30.567Z,92806.00
2023-05-23T10:07:30.589Z,92804.00
2023-05-23T10:08:30.606Z,92804.00
2023-05-23T10:09:30.633Z,92800.00
2023-05-23T10:10:30.677Z,92800.00
2023-05-23T10:11:30.670Z,92802.00
2023-05-23T10:12:30.697Z,92794.00
2023-05-23T10:13:30.711Z,92794.00
2023-05-23T10:14:30.749Z,92794.00
2023-05-23T10:15:30.762Z,92792.00
2023-05-23T10:16:30.825Z,92794.00
2023-05-23T10:17:30.770Z,92794.00
2023-05-23T10:18:33.364Z,92790.00
2023-05-23T10:19:30.705Z,92790.00
2023-05-23T10:20:30.615Z,92788.00
2023-05-23T10:21:30.568Z,92788.00
2023-05-23T10:22:31.289Z,92786.00
2023-05-23T10:23:31.288Z,92790.00
2023-05-23T10:24:30.431Z,92784.00
2023-05-23T10:25:30.412Z,92784.00
2023-05-23T10:26:30.358Z,92782.00
2023-05-23T10:27:30.316Z,92782.00
2023-05-23T10:28:30.263Z,92784.00
2023-05-23T10:29:30.226Z,92782.00
2023-05-23T10:30:30.202Z,92784.00
2023-05-23T10:31:30.268Z,92782.00
2023-05-23T10:32:30.154Z,92780.00
2023-05-23T10:33:31.929Z,92780.00
2023-05-23T10:34:30.043Z,92780.00
2023-05-23T10:35:30.062Z,92780.00
2023-05-23T10:36:29.985Z,92778.00
2023-05-23T10:37:29.946Z,92778.00
2023-05-23T10:38:30.858Z,92780.00
2023-05-23T10:39:29.865Z,92776.00
2023-05-23T10:40:29.831Z,92778.00
2023-05-23T10:41:29.794Z,92772.00
2023-05-23T10:42:29.760Z,92774.00
2023-05-23T10:43:29.753Z,92774.00
2023-05-23T10:44:29.745Z,92772.00
2023-05-23T10:45:29.733Z,92770.00
2023-05-23T10:46:29.800Z,92768.00
2023-05-23T10:47:29.614Z,92764.00
2023-05-23T10:48:29.537Z,92764.00
2023-05-23T10:49:29.538Z,92762.00
2023-05-23T10:50:29.503Z,92760.00
2023-05-23T10:51:29.472Z,92759.00
2023-05-23T10:52:29.372Z,92760.00
2023-05-23T10:53:29.346Z,92760.00
2023-05-23T10:54:29.317Z,92760.00
2023-05-23T10:55:29.310Z,92759.00
2023-05-23T10:56:29.314Z,92759.00
2023-05-23T10:57:29.315Z,92757.00
2023-05-23T10:58:29.309Z,92760.00
2023-05-23T10:59:29.314Z,92755.00
2023-05-23T11:00:29.343Z,92759.00
2023-05-23T11:01:29.392Z,92757.00
2023-05-23T11:02:29.434Z,92755.00
2023-05-23T11:03:29.419Z,92755.00
2023-05-23T11:04:29.391Z,92757.00
2023-05-23T11:05:29.397Z,92762.00
2023-05-23T11:06:29.344Z,92755.00
2023-05-23T11:07:29.348Z,92755.00
2023-05-23T11:08:43.250Z,92759.00
2023-05-23T11:09:30.316Z,92755.00
2023-05-23T11:10:29.294Z,92757.00
2023-05-23T11:11:29.254Z,92755.00
2023-05-23T11:12:29.214Z,92755.00
2023-05-23T11:13:29.191Z,92753.00
2023-05-23T11:14:29.909Z,92755.00
2023-05-23T11:15:29.117Z,92749.00
2023-05-23T11:16:29.220Z,92753.00
2023-05-23T11:17:29.097Z,92753.00
2023-05-23T11:18:29.113Z,92751.00
2023-05-23T11:19:29.252Z,92751.00
2023-05-23T11:20:28.967Z,92751.00
2023-05-23T11:21:28.958Z,92753.00
2023-05-23T11:22:28.971Z,92751.00
2023-05-23T11:23:28.975Z,92749.00
2023-05-23T11:24:28.996Z,92747.00
2023-05-23T11:25:28.999Z,92747.00
2023-05-23T11:26:29.016Z,92747.00
2023-05-23T11:27:29.043Z,92749.00
2023-05-23T11:28:29.881Z,92745.00
2023-05-23T11:29:29.209Z,92747.00
2023-05-23T11:30:29.138Z,92747.00
2023-05-23T11:31:29.171Z,92743.00
2023-05-23T11:32:29.110Z,92747.00
2023-05-23T11:33:29.111Z,92747.00
2023-05-23T11:34:29.127Z,92745.00
2023-05-23T11:35:29.163Z,92743.00
2023-05-23T11:36:29.159Z,92741.00
2023-05-23T11:37:29.182Z,92743.00
2023-05-23T11:38:31.898Z,92741.00
2023-05-23T11:39:29.172Z,92741.00
2023-05-23T11:40:29.146Z,92739.00
2023-05-23T11:41:29.093Z,92737.00
2023-05-23T11:42:29.063Z,92737.00
2023-05-23T11:43:29.896Z,92737.00
2023-05-23T11:44:29.006Z,92733.00